Time;durP1;ratioP1;P1;durP2;ratioP2;P2;SDS_P1;SDS_P2;PMS_P1;PMS_P2;Temp;Humidity;BMP_temperature;BMP_pressure;BME280_temperature;BME280_humidity;BME280_pressure;Samples;Min_cycle;Max_cycle;Signal;HPM_P1;HPM_P2
2022/10/18 00:01:35;;;;;;;39.92;8.32;;;13.00;99.90;;;;;;5103121;28;20140;-38
2022/10/18 00:04:01;;;;;;;18.90;5.47;;;13.00;99.90;;;;;;5106921;28;20104;-38
2022/10/18 00:06:27;;;;;;;94.95;11.60;;;13.00;99.90;;;;;;5100554;28;21087;-37
2022/10/18 00:08:52;;;;;;;51.00;8.55;;;13.00;99.90;;;;;;5101421;28;20040;-38
2022/10/18 00:11:18;;;;;;;64.57;9.85;;;13.00;99.90;;;;;;5096121;28;20039;-38
2022/10/18 00:13:44;;;;;;;33.03;7.90;;;13.00;99.90;;;;;;5101248;28;20525;-37
2022/10/18 00:16:14;;;;;;;34.10;10.43;;;13.00;99.90;;;;;;5103823;28;20455;-38
2022/10/18 00:18:41;;;;;;;22.45;9.95;;;13.00;99.90;;;;;;5101985;28;20114;-38
2022/10/18 00:21:13;;;;;;;18.73;8.80;;;13.00;99.90;;;;;;5095591;28;20039;-39
2022/10/18 00:23:39;;;;;;;16.05;8.13;;;13.00;99.90;;;;;;5096208;28;20057;-38
2022/10/18 00:26:12;;;;;;;16.83;7.68;;;13.00;99.90;;;;;;5097766;28;20472;-40
2022/10/18 00:28:39;;;;;;;31.65;9.75;;;13.00;99.90;;;;;;5104552;28;20046;-38
2022/10/18 00:31:33;;;;;;;19.80;8.20;;;13.10;99.90;;;;;;5103220;28;20127;-39
2022/10/18 00:34:01;;;;;;;25.95;8.63;;;13.00;99.90;;;;;;5097651;28;20048;-39
2022/10/18 00:36:29;;;;;;;26.33;9.02;;;13.00;99.90;;;;;;5103655;28;20036;-39
2022/10/18 00:38:55;;;;;;;80.60;13.25;;;13.00;99.90;;;;;;5103599;28;20038;-41
2022/10/18 00:41:24;;;;;;;142.43;14.15;;;13.00;99.90;;;;;;5104029;28;20035;-40
2022/10/18 00:44:25;;;;;;;129.63;14.65;;;13.00;99.90;;;;;;5101152;28;20036;-40
2022/10/18 00:46:54;;;;;;;100.60;12.75;;;13.10;99.90;;;;;;5081548;28;20130;-42
2022/10/18 00:49:23;;;;;;;82.53;10.07;;;13.00;99.90;;;;;;5102857;28;20048;-42
2022/10/18 00:51:57;;;;;;;179.65;16.98;;;13.00;99.90;;;;;;5098083;28;20043;-41
2022/10/18 00:54:24;;;;;;;125.97;13.85;;;13.00;99.90;;;;;;5100202;28;20032;-40
2022/10/18 00:56:50;;;;;;;112.60;12.65;;;13.00;99.90;;;;;;5104446;28;20047;-41
2022/10/18 00:59:17;;;;;;;105.18;11.35;;;13.00;99.90;;;;;;5098116;28;20036;-41
2022/10/18 01:01:43;;;;;;;72.05;11.30;;;13.00;99.90;;;;;;5105349;28;20035;-40
2022/10/18 01:04:10;;;;;;;39.85;8.73;;;13.00;99.90;;;;;;5102732;28;20516;-42
2022/10/18 01:06:51;;;;;;;63.83;11.45;;;13.00;99.90;;;;;;5100480;28;20147;-39
2022/10/18 01:09:32;;;;;;;14.63;7.15;;;12.90;99.90;;;;;;5106631;28;20040;-42
2022/10/18 01:12:16;;;;;;;11.13;6.28;;;12.90;99.90;;;;;;5098864;28;20088;-41
2022/10/18 01:15:09;;;;;;;23.45;6.15;;;12.90;99.90;;;;;;5103553;28;20097;-39
2022/10/18 01:18:02;;;;;;;57.95;8.88;;;12.80;99.90;;;;;;5089129;28;20048;-39
2022/10/18 01:21:02;;;;;;;33.40;7.78;;;12.80;99.90;;;;;;5105475;28;20040;-39
2022/10/18 01:24:05;;;;;;;33.95;8.20;;;12.80;99.90;;;;;;5103856;28;20042;-40
2022/10/18 01:27:07;;;;;;;28.30;6.25;;;12.70;99.90;;;;;;5099753;28;20178;-42
2022/10/18 01:30:10;;;;;;;35.15;8.13;;;12.70;99.90;;;;;;5099078;28;20048;-40
2022/10/18 01:32:41;;;;;;;27.48;6.63;;;12.70;99.90;;;;;;5099661;28;20044;-41
2022/10/18 01:35:12;;;;;;;53.15;9.02;;;12.60;99.90;;;;;;5098374;28;20111;-40
2022/10/18 01:37:42;;;;;;;36.80;6.68;;;12.60;99.90;;;;;;5098643;28;20043;-41
2022/10/18 01:40:11;;;;;;;52.47;7.65;;;12.60;99.90;;;;;;5099782;28;20036;-40
2022/10/18 01:42:37;;;;;;;38.22;7.15;;;12.60;99.90;;;;;;5101150;28;20552;-39
2022/10/18 01:45:04;;;;;;;28.27;6.10;;;12.50;99.90;;;;;;5107070;28;20143;-39
2022/10/18 01:47:30;;;;;;;53.40;8.00;;;12.50;99.90;;;;;;5106133;28;20095;-39
2022/10/18 01:50:01;;;;;;;68.78;8.07;;;12.50;99.90;;;;;;5107333;28;20043;-41
2022/10/18 01:52:27;;;;;;;51.20;6.75;;;12.50;99.90;;;;;;5101451;28;20368;-39
2022/10/18 01:54:55;;;;;;;15.90;3.80;;;12.40;99.90;;;;;;5102426;28;20035;-39
2022/10/18 01:57:40;;;;;;;29.52;5.28;;;12.40;99.90;;;;;;5103100;28;20043;-40
2022/10/18 02:00:15;;;;;;;52.92;7.30;;;12.40;99.90;;;;;;5103069;28;20048;-42
2022/10/18 02:03:02;;;;;;;22.83;5.53;;;12.40;99.90;;;;;;5098760;28;20057;-40
2022/10/18 02:05:33;;;;;;;44.92;6.43;;;12.30;99.90;;;;;;5102016;28;20043;-41
2022/10/18 02:08:09;;;;;;;51.95;7.50;;;12.30;99.90;;;;;;5095428;28;20103;-40
2022/10/18 02:11:04;;;;;;;40.67;7.30;;;12.30;99.90;;;;;;5097013;28;20044;-41
2022/10/18 02:13:35;;;;;;;36.88;8.18;;;12.30;99.90;;;;;;5095389;28;20451;-39
2022/10/18 02:16:06;;;;;;;13.73;4.43;;;12.20;99.90;;;;;;5104844;28;20049;-40
2022/10/18 02:18:37;;;;;;;32.35;6.97;;;12.20;99.90;;;;;;5104526;28;20047;-42
2022/10/18 02:21:06;;;;;;;37.05;7.57;;;12.20;99.90;;;;;;5097351;28;20046;-41
2022/10/18 02:23:33;;;;;;;20.70;5.85;;;12.20;99.90;;;;;;5102467;28;20059;-39
2022/10/18 02:25:59;;;;;;;36.63;6.60;;;12.20;99.90;;;;;;5099391;28;20031;-40
2022/10/18 02:28:26;;;;;;;41.75;7.45;;;12.20;99.90;;;;;;5096520;28;20457;-40
2022/10/18 02:31:17;;;;;;;23.55;5.45;;;12.20;99.90;;;;;;5099465;28;20054;-42
2022/10/18 02:34:26;;;;;;;49.47;7.00;;;12.20;99.90;;;;;;5097946;28;20120;-45
2022/10/18 02:36:56;;;;;;;48.53;7.75;;;12.20;99.90;;;;;;5104266;28;20056;-41
2022/10/18 02:39:27;;;;;;;57.88;7.30;;;12.20;99.90;;;;;;5096597;28;20051;-41
2022/10/18 02:41:54;;;;;;;24.13;5.60;;;12.20;99.90;;;;;;5105030;28;20040;-41
2022/10/18 02:44:19;;;;;;;46.17;8.05;;;12.20;99.90;;;;;;5102069;28;20580;-40
2022/10/18 02:46:46;;;;;;;25.17;7.40;;;12.10;99.90;;;;;;5100002;28;20122;-45
2022/10/18 02:49:12;;;;;;;32.10;5.93;;;12.10;99.90;;;;;;5104231;28;20071;-41
2022/10/18 02:51:37;;;;;;;18.45;5.18;;;12.10;99.90;;;;;;5098371;28;20071;-41
2022/10/18 02:54:03;;;;;;;42.15;8.27;;;12.10;99.90;;;;;;5099010;28;20039;-41
2022/10/18 02:56:29;;;;;;;44.13;8.15;;;12.10;99.90;;;;;;5094470;28;20036;-41
2022/10/18 02:58:55;;;;;;;41.28;9.18;;;12.10;99.90;;;;;;5087045;28;20567;-41
2022/10/18 03:01:21;;;;;;;47.45;8.05;;;12.00;99.90;;;;;;5083782;28;20043;-39
2022/10/18 03:03:46;;;;;;;41.90;8.38;;;12.00;99.90;;;;;;5099681;28;20032;-41
2022/10/18 03:06:12;;;;;;;48.08;9.73;;;12.00;99.90;;;;;;5095754;28;21996;-40
2022/10/18 03:08:38;;;;;;;40.45;8.38;;;12.00;99.90;;;;;;5102508;28;20396;-40
2022/10/18 03:11:03;;;;;;;18.88;6.03;;;12.00;99.90;;;;;;5097387;28;20382;-39
2022/10/18 03:13:29;;;;;;;29.02;8.13;;;12.00;99.90;;;;;;5093365;28;20120;-40
2022/10/18 03:15:55;;;;;;;18.15;7.32;;;12.00;99.90;;;;;;5102060;28;20110;-39
2022/10/18 03:18:20;;;;;;;21.95;6.88;;;12.00;99.90;;;;;;5096887;28;20122;-41
2022/10/18 03:20:46;;;;;;;35.90;9.45;;;11.90;99.90;;;;;;5098591;28;20044;-40
2022/10/18 03:23:11;;;;;;;33.00;7.60;;;12.00;99.90;;;;;;5098541;28;20106;-42
2022/10/18 03:25:37;;;;;;;16.85;7.20;;;12.00;99.90;;;;;;5094761;28;20104;-40
2022/10/18 03:28:03;;;;;;;22.02;7.60;;;12.00;99.90;;;;;;5101761;28;20082;-40
2022/10/18 03:30:28;;;;;;;16.63;7.70;;;11.90;99.90;;;;;;5094269;28;20087;-41
2022/10/18 03:32:54;;;;;;;24.23;8.05;;;11.90;99.90;;;;;;5099887;28;20042;-40
2022/10/18 03:35:20;;;;;;;31.73;7.38;;;11.90;99.90;;;;;;5094529;28;20070;-39
2022/10/18 03:37:46;;;;;;;24.45;6.28;;;11.80;99.90;;;;;;5096163;28;20040;-40
2022/10/18 03:40:11;;;;;;;27.17;7.28;;;11.80;99.90;;;;;;5094172;28;20035;-41
2022/10/18 03:42:37;;;;;;;18.95;6.80;;;11.80;99.90;;;;;;5096383;28;20043;-39
2022/10/18 03:45:03;;;;;;;17.23;6.75;;;11.80;99.90;;;;;;5097400;28;20092;-40
2022/10/18 03:47:29;;;;;;;16.13;5.82;;;11.80;99.90;;;;;;5097257;28;20456;-39
2022/10/18 03:49:55;;;;;;;29.00;8.05;;;11.80;99.90;;;;;;5095529;28;20044;-41
2022/10/18 03:52:20;;;;;;;8.70;5.80;;;11.80;99.90;;;;;;5093736;28;20128;-40
2022/10/18 03:54:46;;;;;;;21.75;6.97;;;11.80;99.90;;;;;;5101744;28;20032;-40
2022/10/18 03:57:12;;;;;;;27.92;8.40;;;11.80;99.90;;;;;;5098426;28;20047;-39
2022/10/18 03:59:37;;;;;;;35.22;7.35;;;11.80;99.90;;;;;;5094577;28;20450;-39
2022/10/18 04:02:03;;;;;;;15.05;5.43;;;11.80;99.90;;;;;;5102136;28;20126;-39
2022/10/18 04:04:29;;;;;;;30.15;7.97;;;11.80;99.90;;;;;;5103716;28;20088;-39
2022/10/18 04:06:55;;;;;;;24.25;7.47;;;11.80;99.90;;;;;;5101937;28;20389;-40
2022/10/18 04:09:20;;;;;;;28.13;7.20;;;11.80;99.90;;;;;;5108138;28;20071;-40
2022/10/18 04:11:49;;;;;;;22.40;5.93;;;11.80;99.90;;;;;;5104388;28;20027;-40
2022/10/18 04:14:15;;;;;;;22.83;5.82;;;11.80;99.90;;;;;;5088992;28;20089;-38
2022/10/18 04:16:41;;;;;;;30.90;7.82;;;11.70;99.90;;;;;;5101140;28;20079;-40
2022/10/18 04:19:06;;;;;;;21.27;5.82;;;11.70;99.90;;;;;;5085731;28;20083;-39
2022/10/18 04:21:32;;;;;;;35.42;6.97;;;11.80;99.90;;;;;;5103045;28;20048;-39
2022/10/18 04:23:58;;;;;;;25.95;5.78;;;11.70;99.90;;;;;;5107034;28;20040;-39
2022/10/18 04:26:23;;;;;;;42.13;9.13;;;11.70;99.90;;;;;;5100717;28;20068;-40
2022/10/18 04:28:49;;;;;;;63.53;9.48;;;11.70;99.90;;;;;;5097205;28;20054;-41
2022/10/18 04:31:14;;;;;;;22.58;6.18;;;11.70;99.90;;;;;;5100041;28;20036;-40
2022/10/18 04:33:40;;;;;;;20.50;7.05;;;11.70;99.90;;;;;;5080841;28;20541;-40
2022/10/18 04:36:06;;;;;;;45.13;8.95;;;11.70;99.90;;;;;;5101337;28;20077;-52
2022/10/18 04:38:32;;;;;;;23.95;6.53;;;11.70;99.90;;;;;;5105353;28;20900;-40
2022/10/18 04:40:57;;;;;;;17.35;6.30;;;11.60;99.90;;;;;;5083124;28;20039;-40
2022/10/18 04:43:23;;;;;;;47.88;8.65;;;11.60;99.90;;;;;;5095498;28;20043;-40
2022/10/18 04:45:50;;;;;;;20.00;5.40;;;11.60;99.90;;;;;;5103778;28;20074;-40
2022/10/18 04:48:16;;;;;;;19.13;5.38;;;11.60;99.90;;;;;;5105294;28;20038;-41
2022/10/18 04:50:42;;;;;;;14.35;5.38;;;11.60;99.90;;;;;;5097476;28;20404;-40
2022/10/18 04:53:08;;;;;;;39.22;6.88;;;11.50;99.90;;;;;;5098575;28;20032;-42
2022/10/18 04:55:34;;;;;;;16.55;5.40;;;11.50;99.90;;;;;;5106157;28;20105;-40
2022/10/18 04:57:59;;;;;;;49.17;7.57;;;11.50;99.90;;;;;;5098267;28;20583;-39
2022/10/18 05:00:25;;;;;;;44.17;7.70;;;11.50;99.90;;;;;;5103284;28;20095;-41
2022/10/18 05:02:58;;;;;;;32.17;6.47;;;11.50;99.90;;;;;;5100846;28;20043;-40
2022/10/18 05:05:24;;;;;;;24.38;6.35;;;11.50;99.90;;;;;;5102682;28;20047;-40
2022/10/18 05:07:49;;;;;;;11.95;5.03;;;11.60;99.90;;;;;;5103238;28;20035;-41
2022/10/18 05:10:15;;;;;;;59.88;8.50;;;11.60;99.90;;;;;;5096225;28;20108;-41
2022/10/18 05:12:42;;;;;;;27.77;5.38;;;11.50;99.90;;;;;;5102769;28;21342;-41
2022/10/18 05:15:08;;;;;;;33.75;6.32;;;11.60;99.90;;;;;;5103414;28;20035;-40
2022/10/18 05:17:34;;;;;;;17.52;5.65;;;11.60;99.90;;;;;;5099688;28;20036;-40
2022/10/18 05:20:00;;;;;;;22.02;5.95;;;11.60;99.90;;;;;;5105382;28;20040;-39
2022/10/18 05:22:26;;;;;;;59.65;6.32;;;11.50;99.90;;;;;;5104623;28;20051;-38
2022/10/18 05:24:52;;;;;;;22.55;4.53;;;11.50;99.90;;;;;;5077987;28;20047;-40
2022/10/18 05:27:17;;;;;;;67.13;7.45;;;11.50;99.90;;;;;;5083837;28;20059;-41
2022/10/18 05:29:43;;;;;;;97.88;8.43;;;11.40;99.90;;;;;;5098734;28;20412;-40
2022/10/18 05:32:09;;;;;;;19.52;4.70;;;11.40;99.90;;;;;;5096760;28;20035;-39
2022/10/18 05:34:34;;;;;;;64.18;9.32;;;11.40;99.90;;;;;;5104235;28;20035;-41
2022/10/18 05:37:00;;;;;;;97.20;9.55;;;11.40;99.90;;;;;;5100166;28;20036;-39
2022/10/18 05:39:26;;;;;;;101.57;9.15;;;11.40;99.90;;;;;;5100089;28;20047;-40
2022/10/18 05:41:51;;;;;;;66.30;8.63;;;11.40;99.90;;;;;;5099630;28;20180;-40
2022/10/18 05:44:17;;;;;;;69.75;8.32;;;11.40;99.90;;;;;;5099411;28;20248;-39
2022/10/18 05:46:43;;;;;;;72.10;8.57;;;11.40;99.90;;;;;;5093902;28;20049;-39
2022/10/18 05:49:11;;;;;;;110.07;10.20;;;11.40;99.90;;;;;;5103966;28;20046;-41
2022/10/18 05:51:37;;;;;;;44.97;6.88;;;11.40;99.90;;;;;;5098067;28;20035;-39
2022/10/18 05:54:02;;;;;;;80.03;8.10;;;11.40;99.90;;;;;;5098593;28;20084;-40
2022/10/18 05:56:28;;;;;;;79.10;8.50;;;11.30;99.90;;;;;;5104733;28;20036;-40
2022/10/18 05:58:54;;;;;;;66.75;8.45;;;11.40;99.90;;;;;;5100064;28;20047;-39
2022/10/18 06:01:19;;;;;;;35.58;5.90;;;11.40;99.90;;;;;;5095309;28;20031;-38
2022/10/18 06:03:45;;;;;;;74.78;9.45;;;11.40;99.90;;;;;;5104929;28;20114;-39
2022/10/18 06:06:12;;;;;;;35.97;5.25;;;11.40;99.90;;;;;;5103160;28;20032;-38
2022/10/18 06:08:39;;;;;;;25.27;5.22;;;11.30;99.90;;;;;;5103288;28;20517;-39
2022/10/18 06:11:16;;;;;;;19.98;4.30;;;11.30;99.90;;;;;;5099032;28;20088;-39
2022/10/18 06:13:44;;;;;;;23.17;4.80;;;11.20;99.90;;;;;;5097988;28;20038;-39
2022/10/18 06:16:10;;;;;;;10.30;3.55;;;11.20;99.90;;;;;;5100424;28;20084;-40
2022/10/18 06:18:36;;;;;;;22.75;5.38;;;11.10;99.90;;;;;;5099862;28;20036;-38
2022/10/18 06:21:02;;;;;;;10.75;3.65;;;11.10;99.90;;;;;;5100803;28;20035;-37
2022/10/18 06:23:28;;;;;;;11.50;4.40;;;11.10;99.90;;;;;;5105248;28;20044;-39
2022/10/18 06:26:01;;;;;;;26.63;4.90;;;11.10;99.90;;;;;;5098340;28;20557;-39
2022/10/18 06:28:28;;;;;;;25.38;4.55;;;11.10;99.90;;;;;;5102462;28;20047;-40
2022/10/18 06:30:54;;;;;;;41.60;4.95;;;11.20;99.90;;;;;;5101203;28;20500;-39
2022/10/18 06:33:19;;;;;;;16.75;3.72;;;11.20;99.90;;;;;;5104967;28;20035;-37
2022/10/18 06:35:59;;;;;;;95.80;8.75;;;11.20;99.90;;;;;;5099475;28;20062;-37
2022/10/18 06:38:26;;;;;;;39.60;6.13;;;11.20;99.90;;;;;;5104522;28;20033;-37
2022/10/18 06:40:52;;;;;;;33.13;7.07;;;11.20;99.90;;;;;;5103218;28;20539;-38
2022/10/18 06:43:18;;;;;;;51.50;6.20;;;11.10;99.90;;;;;;5102508;28;20035;-39
2022/10/18 06:45:44;;;;;;;20.15;4.75;;;11.10;99.90;;;;;;5103157;28;20050;-37
2022/10/18 06:48:09;;;;;;;16.98;4.50;;;11.10;99.90;;;;;;5103353;28;20043;-38
2022/10/18 06:50:35;;;;;;;13.00;4.47;;;11.00;99.90;;;;;;5097322;28;20500;-38
2022/10/18 06:53:02;;;;;;;13.38;4.70;;;11.00;99.90;;;;;;5100300;28;20105;-38
2022/10/18 06:55:29;;;;;;;9.07;4.57;;;10.90;99.90;;;;;;5102705;28;20216;-37
2022/10/18 06:57:55;;;;;;;11.10;3.72;;;10.90;99.90;;;;;;5105681;28;20084;-37
2022/10/18 07:00:21;;;;;;;10.02;3.70;;;10.80;99.90;;;;;;5094089;28;20036;-39
2022/10/18 07:02:46;;;;;;;19.42;3.28;;;10.80;99.90;;;;;;5096782;28;20408;-39
2022/10/18 07:05:12;;;;;;;18.88;3.40;;;10.70;99.90;;;;;;5083737;28;20027;-39
2022/10/18 07:07:38;;;;;;;18.70;3.85;;;10.70;99.90;;;;;;5102449;28;20457;-39
2022/10/18 07:10:04;;;;;;;13.20;3.40;;;10.70;99.90;;;;;;5101133;28;20044;-40
2022/10/18 07:12:31;;;;;;;16.58;3.80;;;10.80;99.90;;;;;;5096727;28;20031;-39
2022/10/18 07:14:56;;;;;;;32.33;5.00;;;10.80;99.90;;;;;;5096282;28;20032;-38
2022/10/18 07:17:22;;;;;;;38.13;5.97;;;10.70;99.90;;;;;;5092265;28;20028;-39
2022/10/18 07:19:48;;;;;;;26.48;4.97;;;10.70;99.90;;;;;;5095796;28;20579;-39
2022/10/18 07:22:14;;;;;;;14.68;4.45;;;10.70;99.90;;;;;;5094238;28;20200;-39
2022/10/18 07:24:39;;;;;;;19.02;4.65;;;10.70;99.90;;;;;;5105741;28;20032;-38
2022/10/18 07:27:05;;;;;;;23.42;5.70;;;10.80;99.90;;;;;;5100004;28;20051;-39
2022/10/18 07:29:31;;;;;;;12.15;3.47;;;10.80;99.90;;;;;;5103913;28;20046;-38
2022/10/18 07:31:56;;;;;;;31.85;5.25;;;10.90;99.90;;;;;;5099110;28;20450;-38
2022/10/18 07:34:22;;;;;;;29.20;5.32;;;10.90;99.90;;;;;;5095494;28;20409;-38
2022/10/18 07:36:48;;;;;;;13.40;3.67;;;10.90;99.90;;;;;;5101536;28;20172;-40
2022/10/18 07:39:14;;;;;;;14.93;4.15;;;10.90;99.90;;;;;;5104629;28;20092;-39
2022/10/18 07:41:39;;;;;;;14.20;3.50;;;10.90;99.90;;;;;;5099851;28;20031;-38
2022/10/18 07:44:05;;;;;;;24.65;4.47;;;11.00;99.90;;;;;;5100030;28;20028;-39
2022/10/18 07:46:31;;;;;;;28.80;5.35;;;11.00;99.90;;;;;;5085109;28;20115;-38
2022/10/18 07:48:59;;;;;;;23.25;4.22;;;11.00;99.90;;;;;;5106733;28;20057;-37
2022/10/18 07:51:26;;;;;;;32.72;5.10;;;11.00;99.90;;;;;;5100220;28;20336;-37
2022/10/18 07:53:52;;;;;;;81.57;7.60;;;11.10;99.90;;;;;;5098427;28;20032;-37
2022/10/18 07:56:20;;;;;;;58.63;6.32;;;11.20;99.90;;;;;;5098748;28;20473;-37
2022/10/18 07:58:50;;;;;;;74.68;8.90;;;11.20;99.90;;;;;;5110253;28;20038;-38
2022/10/18 08:01:16;;;;;;;86.80;9.20;;;11.20;99.90;;;;;;5108088;28;20043;-38
2022/10/18 08:03:42;;;;;;;61.97;6.00;;;11.10;99.90;;;;;;5103582;28;20043;-38
2022/10/18 08:06:10;;;;;;;57.35;6.18;;;11.20;99.90;;;;;;5102813;28;20042;-37
2022/10/18 08:08:37;;;;;;;41.75;5.15;;;11.20;99.90;;;;;;5101314;28;20507;-38
2022/10/18 08:11:13;;;;;;;21.70;4.80;;;11.20;99.90;;;;;;5107007;28;20047;-38
2022/10/18 08:13:39;;;;;;;52.00;6.60;;;11.30;99.90;;;;;;5099518;28;20495;-37
2022/10/18 08:16:13;;;;;;;68.25;7.20;;;11.40;99.90;;;;;;5103584;28;20173;-40
2022/10/18 08:18:39;;;;;;;46.28;5.82;;;11.40;99.90;;;;;;5098815;28;20040;-42
2022/10/18 08:21:07;;;;;;;74.30;7.32;;;11.50;99.90;;;;;;5100908;28;20046;-42
2022/10/18 08:23:34;;;;;;;25.90;4.47;;;11.60;99.90;;;;;;5106100;28;20036;-42
2022/10/18 08:26:01;;;;;;;24.95;5.07;;;11.70;99.90;;;;;;5097011;28;20501;-40
2022/10/18 08:28:27;;;;;;;74.40;7.53;;;11.80;99.90;;;;;;5097841;28;20059;-40
2022/10/18 08:30:53;;;;;;;40.38;5.28;;;11.80;99.90;;;;;;5103098;28;20032;-42
2022/10/18 08:33:18;;;;;;;30.17;5.88;;;11.80;99.90;;;;;;5103341;28;20340;-38
2022/10/18 08:35:54;;;;;;;10.95;5.60;;;11.90;99.90;;;;;;5100492;28;20092;-40
2022/10/18 08:38:19;;;;;;;10.02;4.68;;;11.90;99.90;;;;;;5098683;28;20039;-41
2022/10/18 08:40:46;;;;;;;19.05;5.70;;;12.00;99.90;;;;;;5098645;28;20042;-41
2022/10/18 08:43:40;;;;;;;13.20;5.32;;;12.00;99.90;;;;;;5099327;28;20038;-41
2022/10/18 08:46:10;;;;;;;12.55;5.10;;;12.20;99.90;;;;;;5093081;28;20052;-42
2022/10/18 08:48:40;;;;;;;12.88;6.03;;;12.30;99.90;;;;;;5098114;28;20062;-43
2022/10/18 08:51:17;;;;;;;9.80;5.20;;;12.40;99.90;;;;;;5107294;28;20063;-42
2022/10/18 08:54:13;;;;;;;8.52;4.78;;;12.50;99.90;;;;;;5102648;28;20036;-43
2022/10/18 08:56:44;;;;;;;9.95;5.03;;;12.60;99.90;;;;;;5100204;28;20102;-44
2022/10/18 08:59:12;;;;;;;9.93;4.80;;;12.60;99.90;;;;;;5100668;28;20027;-44
2022/10/18 09:01:59;;;;;;;8.18;4.53;;;12.70;99.90;;;;;;5107362;28;20043;-42
2022/10/18 09:04:53;;;;;;;11.60;4.47;;;12.80;99.90;;;;;;5101750;28;20594;-43
2022/10/18 09:07:40;;;;;;;8.98;4.28;;;12.90;99.90;;;;;;5103537;28;20034;-42
2022/10/18 09:10:17;;;;;;;7.25;3.72;;;13.00;99.90;;;;;;5103061;28;20564;-42
2022/10/18 09:12:48;;;;;;;6.65;3.80;;;13.00;99.90;;;;;;5107831;28;20061;-43
2022/10/18 09:15:23;;;;;;;6.38;2.42;;;13.20;99.90;;;;;;5101798;28;20519;-42
2022/10/18 09:18:22;;;;;;;8.60;2.40;;;13.20;99.90;;;;;;5103097;28;20051;-42
2022/10/18 09:20:56;;;;;;;7.38;2.40;;;13.30;99.90;;;;;;5106277;28;20044;-42
2022/10/18 09:23:31;;;;;;;7.68;3.00;;;13.40;99.90;;;;;;5108601;28;20035;-42
2022/10/18 09:26:12;;;;;;;11.63;2.33;;;13.50;99.90;;;;;;5105117;28;20594;-42
2022/10/18 09:29:05;;;;;;;5.55;2.08;;;13.50;99.90;;;;;;5105075;28;20070;-41
2022/10/18 09:31:37;;;;;;;10.63;2.25;;;13.70;99.90;;;;;;5097847;28;20040;-42
2022/10/18 09:34:10;;;;;;;5.88;1.70;;;13.70;99.90;;;;;;5102050;28;20092;-43
2022/10/18 09:36:37;;;;;;;;;;;13.80;99.90;;;;;;5103173;28;20045;-43
2022/10/18 09:39:13;;;;;;;5.22;1.70;;;13.90;99.90;;;;;;5101068;28;20020;-43
2022/10/18 09:41:50;;;;;;;5.97;2.15;;;14.00;99.90;;;;;;5105559;28;20054;-44
2022/10/18 09:44:22;;;;;;;8.98;2.17;;;14.10;99.90;;;;;;5094212;28;20036;-42
2022/10/18 09:47:20;;;;;;;4.63;1.55;;;14.10;99.90;;;;;;5101470;28;20036;-40
2022/10/18 09:50:01;;;;;;;7.82;1.48;;;14.20;99.90;;;;;;5100309;28;20028;-42
2022/10/18 09:52:35;;;;;;;6.20;1.17;;;14.40;99.90;;;;;;5106631;28;20103;-41
2022/10/18 09:55:14;;;;;;;7.68;1.23;;;14.40;99.90;;;;;;5106483;28;20084;-41
2022/10/18 09:57:49;;;;;;;7.53;0.98;;;14.40;99.90;;;;;;5102650;28;20047;-42
2022/10/18 10:00:20;;;;;;;5.60;0.93;;;14.50;99.90;;;;;;5090731;28;20092;-40
2022/10/18 10:02:46;;;;;;;5.70;1.02;;;14.60;99.90;;;;;;5097670;28;20473;-41
2022/10/18 10:05:13;;;;;;;6.97;0.77;;;14.60;99.90;;;;;;5099177;28;20036;-40
2022/10/18 10:07:44;;;;;;;9.00;0.77;;;14.70;99.90;;;;;;5105561;28;20540;-41
2022/10/18 10:10:24;;;;;;;5.43;0.80;;;14.70;99.90;;;;;;5105600;28;20050;-40
2022/10/18 10:13:16;;;;;;;6.00;0.90;;;14.80;99.90;;;;;;5100908;28;20051;-40
2022/10/18 10:15:56;;;;;;;6.15;0.70;;;14.90;99.90;;;;;;5105802;28;20043;-40
2022/10/18 10:18:24;;;;;;;7.30;0.88;;;14.90;99.90;;;;;;5098862;28;20043;-41
2022/10/18 10:20:55;;;;;;;4.55;0.88;;;15.00;99.90;;;;;;5104264;28;20027;-41
2022/10/18 10:23:32;;;;;;;9.65;0.82;;;15.00;99.90;;;;;;5102503;28;20114;-40
2022/10/18 10:26:02;;;;;;;7.38;0.80;;;15.00;99.90;;;;;;5094191;28;20036;-42
2022/10/18 10:28:32;;;;;;;7.65;0.93;;;15.10;99.90;;;;;;5097570;28;20105;-41
2022/10/18 10:31:27;;;;;;;6.18;0.70;;;15.20;99.90;;;;;;5104566;28;20098;-40
2022/10/18 10:34:13;;;;;;;8.95;1.02;;;15.20;99.90;;;;;;5099345;28;20043;-43
2022/10/18 10:36:53;;;;;;;6.85;0.98;;;15.30;99.90;;;;;;5103296;28;20066;-40
2022/10/18 10:39:21;;;;;;;6.05;0.70;;;15.40;99.90;;;;;;5103457;28;20042;-44
2022/10/18 10:41:56;;;;;;;5.93;1.08;;;15.40;99.90;;;;;;5104610;28;20043;-42
2022/10/18 10:44:24;;;;;;;7.32;0.85;;;15.50;99.90;;;;;;5092608;28;20092;-43
2022/10/18 10:46:51;;;;;;;8.07;0.90;;;15.50;99.90;;;;;;5103823;28;20122;-42
2022/10/18 10:49:22;;;;;;;11.05;0.60;;;15.60;99.90;;;;;;5097622;28;20031;-42
2022/10/18 10:52:02;;;;;;;5.43;0.60;;;15.60;99.90;;;;;;5097320;28;20106;-41
2022/10/18 10:54:34;;;;;;;5.63;0.50;;;15.60;99.90;;;;;;5100286;28;20032;-46
2022/10/18 10:57:15;;;;;;;8.68;1.00;;;15.70;99.90;;;;;;5100961;28;20436;-44
2022/10/18 10:59:47;;;;;;;5.40;0.77;;;15.80;99.90;;;;;;5097663;28;20504;-43
2022/10/18 11:02:30;;;;;;;7.20;1.58;;;15.80;99.90;;;;;;5101949;28;20516;-43
2022/10/18 11:05:14;;;;;;;5.05;0.55;;;15.80;99.90;;;;;;5099986;28;20070;-42
2022/10/18 11:07:44;;;;;;;9.27;1.33;;;15.90;99.90;;;;;;5105960;28;20579;-42
2022/10/18 11:10:12;;;;;;;8.70;0.98;;;16.00;99.90;;;;;;5098078;28;20051;-44
2022/10/18 11:12:40;;;;;;;4.55;0.60;;;16.00;99.90;;;;;;5079700;28;20426;-39
2022/10/18 11:15:14;;;;;;;7.50;1.17;;;16.10;99.90;;;;;;5105803;28;20046;-38
2022/10/18 11:18:01;;;;;;;7.78;0.60;;;16.10;99.90;;;;;;5108461;28;20045;-42
2022/10/18 11:20:55;;;;;;;6.88;1.60;;;16.10;99.90;;;;;;5098284;28;20101;-42
2022/10/18 11:23:27;;;;;;;7.68;0.82;;;16.20;99.90;;;;;;5103058;28;20035;-40
2022/10/18 11:26:05;;;;;;;6.50;0.50;;;16.40;99.90;;;;;;5101760;28;20032;-46
2022/10/18 11:29:09;;;;;;;6.35;0.90;;;16.40;99.90;;;;;;5099069;28;20066;-39
2022/10/18 11:31:44;;;;;;;7.05;0.68;;;16.50;99.90;;;;;;5099185;28;20074;-43
2022/10/18 11:34:21;;;;;;;7.80;0.70;;;16.80;99.90;;;;;;5097798;28;20043;-41
2022/10/18 11:37:25;;;;;;;7.30;0.80;;;17.20;99.90;;;;;;5099798;28;20503;-47
2022/10/18 11:40:09;;;;;;;5.70;0.93;;;17.60;99.90;;;;;;5103905;28;20853;-43
2022/10/18 11:42:54;;;;;;;5.70;0.70;;;17.90;99.90;;;;;;5097264;28;20047;-40
2022/10/18 11:45:48;;;;;;;3.08;0.52;;;18.20;99.90;;;;;;5098223;28;20040;-41
2022/10/18 11:48:35;;;;;;;6.65;0.82;;;18.30;97.60;;;;;;5092450;28;20040;-41
2022/10/18 11:51:35;;;;;;;6.72;0.70;;;18.50;95.40;;;;;;5098712;28;20412;-42
2022/10/18 11:54:44;;;;;;;9.20;0.82;;;18.80;97.20;;;;;;5091699;28;20051;-43
2022/10/18 11:57:44;;;;;;;4.95;0.70;;;19.20;96.40;;;;;;5099730;28;20043;-42
2022/10/18 12:00:39;;;;;;;6.70;0.73;;;19.40;91.50;;;;;;5099144;28;20047;-46
2022/10/18 12:03:48;;;;;;;7.30;0.73;;;19.80;93.90;;;;;;5095466;28;20055;-43
2022/10/18 12:06:21;;;;;;;7.85;0.85;;;20.00;89.90;;;;;;5097430;28;20055;-44
2022/10/18 12:09:01;;;;;;;4.55;0.88;;;20.10;92.50;;;;;;5100645;28;20422;-41
2022/10/18 12:11:33;;;;;;;6.43;0.50;;;20.20;90.90;;;;;;5094653;28;20036;-43
2022/10/18 12:14:01;;;;;;;6.07;0.50;;;20.40;91.30;;;;;;5092021;28;20036;-43
2022/10/18 12:16:33;;;;;;;5.80;0.98;;;20.60;91.60;;;;;;5105246;28;20066;-42
2022/10/18 12:19:02;;;;;;;3.63;0.63;;;20.90;90.50;;;;;;5098224;28;20143;-44
2022/10/18 12:21:30;;;;;;;5.03;0.60;;;21.00;89.60;;;;;;5093932;28;20500;-42
2022/10/18 12:24:01;;;;;;;3.75;0.75;;;21.20;85.10;;;;;;5102688;28;20044;-41
2022/10/18 12:26:28;;;;;;;5.82;0.70;;;21.30;81.50;;;;;;5100183;28;20542;-42
2022/10/18 12:28:57;;;;;;;5.82;1.08;;;21.60;87.60;;;;;;5081485;28;20135;-42
2022/10/18 12:31:38;;;;;;;4.60;0.98;;;21.80;86.80;;;;;;5077642;28;20043;-43
2022/10/18 12:34:20;;;;;;;4.72;0.77;;;22.00;83.10;;;;;;5081671;28;20148;-43
2022/10/18 12:37:12;;;;;;;5.53;0.90;;;22.20;83.80;;;;;;5084596;28;20115;-43
2022/10/18 12:39:43;;;;;;;5.83;0.73;;;22.10;77.40;;;;;;5073092;28;20051;-43
2022/10/18 12:42:24;;;;;;;6.32;0.90;;;22.40;82.60;;;;;;5085182;28;20500;-42
2022/10/18 12:45:00;;;;;;;4.93;0.77;;;22.60;76.90;;;;;;5087784;28;20043;-43
2022/10/18 12:47:28;;;;;;;8.02;1.08;;;;;;;;;;5089249;28;20040;-41
2022/10/18 12:50:00;;;;;;;13.95;0.82;;;23.50;99.90;;;;;;5084869;28;20039;-45
2022/10/18 12:52:28;;;;;;;4.35;0.45;;;23.60;99.90;;;;;;5088747;28;20044;-43
2022/10/18 12:55:08;;;;;;;8.32;0.93;;;23.60;99.90;;;;;;5086924;28;20036;-42
2022/10/18 12:57:52;;;;;;;6.32;0.88;;;23.70;99.90;;;;;;5086893;28;20040;-42
2022/10/18 13:00:30;;;;;;;4.93;0.68;;;24.10;99.40;;;;;;5085664;28;20047;-42
2022/10/18 13:03:08;;;;;;;6.68;1.00;;;24.10;98.90;;;;;;5085256;28;20066;-42
2022/10/18 13:05:46;;;;;;;6.20;0.90;;;23.90;99.00;;;;;;5083179;28;20044;-42